sensor_id;sensor_type;location;lat;lon;timestamp;pressure;altitude;pressure_sealevel;temperature;humidity
6514;BME280;3290;47.716;9.070;2023-05-21T00:02:03;96484.69;;;16.21;100.00
6514;BME280;3290;47.716;9.070;2023-05-21T00:04:29;96482.06;;;16.31;100.00
6514;BME280;3290;47.716;9.070;2023-05-21T00:06:56;96481.00;;;16.27;100.00
6514;BME280;3290;47.716;9.070;2023-05-21T00:09:22;96487.53;;;16.14;100.00
6514;BME280;3290;47.716;9.070;2023-05-21T00:11:48;96479.16;;;16.27;100.00
6514;BME280;3290;47.716;9.070;2023-05-21T00:14:13;96471.25;;;16.37;100.00
6514;BME280;3290;47.716;9.070;2023-05-21T00:16:39;96464.34;;;16.26;100.00
6514;BME280;3290;47.716;9.070;2023-05-21T00:19:04;96470.41;;;16.22;100.00
6514;BME280;3290;47.716;9.070;2023-05-21T00:21:30;96467.22;;;16.20;100.00
6514;BME280;3290;47.716;9.070;2023-05-21T00:23:55;96460.91;;;16.21;100.00
6514;BME280;3290;47.716;9.070;2023-05-21T00:26:21;96460.66;;;16.22;100.00
6514;BME280;3290;47.716;9.070;2023-05-21T00:28:48;96455.06;;;16.24;100.00
6514;BME280;3290;47.716;9.070;2023-05-21T00:31:13;96447.94;;;16.19;100.00
6514;BME280;3290;47.716;9.070;2023-05-21T00:33:40;96447.38;;;16.17;100.00
6514;BME280;3290;47.716;9.070;2023-05-21T00:36:05;96441.88;;;16.19;100.00
6514;BME280;3290;47.716;9.070;2023-05-21T00:38:31;96449.03;;;16.33;100.00
6514;BME280;3290;47.716;9.070;2023-05-21T00:41:00;96446.09;;;16.25;100.00
6514;BME280;3290;47.716;9.070;2023-05-21T00:43:26;96448.75;;;16.30;100.00
6514;BME280;3290;47.716;9.070;2023-05-21T00:45:51;96451.97;;;16.42;100.00
6514;BME280;3290;47.716;9.070;2023-05-21T00:48:18;96449.22;;;16.17;100.00
6514;BME280;3290;47.716;9.070;2023-05-21T00:50:45;96448.94;;;16.18;100.00
6514;BME280;3290;47.716;9.070;2023-05-21T00:53:11;96450.84;;;16.23;100.00
6514;BME280;3290;47.716;9.070;2023-05-21T00:55:37;96447.22;;;16.48;100.00
6514;BME280;3290;47.716;9.070;2023-05-21T00:58:03;96452.50;;;16.48;100.00
6514;BME280;3290;47.716;9.070;2023-05-21T01:00:32;96445.63;;;16.52;100.00
6514;BME280;3290;47.716;9.070;2023-05-21T01:02:58;96442.72;;;16.49;100.00
6514;BME280;3290;47.716;9.070;2023-05-21T01:05:23;96442.19;;;16.42;100.00
6514;BME280;3290;47.716;9.070;2023-05-21T01:07:49;96441.78;;;16.09;100.00
6514;BME280;3290;47.716;9.070;2023-05-21T01:10:14;96434.09;;;15.98;100.00
6514;BME280;3290;47.716;9.070;2023-05-21T01:12:42;96426.44;;;16.06;100.00
6514;BME280;3290;47.716;9.070;2023-05-21T01:15:09;96431.13;;;15.79;100.00
6514;BME280;3290;47.716;9.070;2023-05-21T01:17:35;96428.00;;;15.87;100.00
6514;BME280;3290;47.716;9.070;2023-05-21T01:20:01;96427.44;;;15.85;100.00
6514;BME280;3290;47.716;9.070;2023-05-21T01:22:34;96426.34;;;15.76;100.00
6514;BME280;3290;47.716;9.070;2023-05-21T01:25:00;96421.59;;;15.73;100.00
6514;BME280;3290;47.716;9.070;2023-05-21T01:27:27;96426.88;;;15.73;100.00
6514;BME280;3290;47.716;9.070;2023-05-21T01:29:52;96417.34;;;15.72;100.00
6514;BME280;3290;47.716;9.070;2023-05-21T01:32:28;96422.03;;;15.61;100.00
6514;BME280;3290;47.716;9.070;2023-05-21T01:35:21;96417.81;;;15.55;100.00
6514;BME280;3290;47.716;9.070;2023-05-21T01:40:48;96418.41;;;15.66;100.00
6514;BME280;3290;47.716;9.070;2023-05-21T01:43:17;96418.44;;;15.81;100.00
6514;BME280;3290;47.716;9.070;2023-05-21T01:45:44;96418.75;;;15.90;100.00
6514;BME280;3290;47.716;9.070;2023-05-21T01:48:11;96421.63;;;15.83;100.00
6514;BME280;3290;47.716;9.070;2023-05-21T01:50:39;96423.22;;;15.84;100.00
6514;BME280;3290;47.716;9.070;2023-05-21T01:53:05;96422.09;;;15.70;100.00
6514;BME280;3290;47.716;9.070;2023-05-21T01:55:31;96427.19;;;15.87;100.00
6514;BME280;3290;47.716;9.070;2023-05-21T01:57:57;96424.78;;;15.85;100.00
6514;BME280;3290;47.716;9.070;2023-05-21T02:00:25;96430.34;;;15.79;100.00
6514;BME280;3290;47.716;9.070;2023-05-21T02:02:53;96429.50;;;15.68;100.00
6514;BME280;3290;47.716;9.070;2023-05-21T02:05:19;96425.81;;;15.74;100.00
6514;BME280;3290;47.716;9.070;2023-05-21T02:07:45;96429.78;;;15.72;100.00
6514;BME280;3290;47.716;9.070;2023-05-21T02:10:11;96422.38;;;15.74;100.00
6514;BME280;3290;47.716;9.070;2023-05-21T02:12:37;96426.06;;;15.73;100.00
6514;BME280;3290;47.716;9.070;2023-05-21T02:15:03;96425.03;;;15.79;100.00
6514;BME280;3290;47.716;9.070;2023-05-21T02:17:28;96424.50;;;15.72;100.00
6514;BME280;3290;47.716;9.070;2023-05-21T02:19:58;96423.63;;;15.57;100.00
6514;BME280;3290;47.716;9.070;2023-05-21T02:22:31;96420.19;;;15.56;100.00
6514;BME280;3290;47.716;9.070;2023-05-21T02:24:57;96418.41;;;15.71;100.00
6514;BME280;3290;47.716;9.070;2023-05-21T02:27:23;96411.75;;;15.64;100.00
6514;BME280;3290;47.716;9.070;2023-05-21T02:29:48;96408.06;;;15.60;100.00
6514;BME280;3290;47.716;9.070;2023-05-21T02:32:13;96409.16;;;15.69;100.00
6514;BME280;3290;47.716;9.070;2023-05-21T02:34:39;96409.09;;;15.59;100.00
6514;BME280;3290;47.716;9.070;2023-05-21T02:37:06;96414.00;;;15.36;100.00
6514;BME280;3290;47.716;9.070;2023-05-21T02:39:33;96407.75;;;15.52;100.00
6514;BME280;3290;47.716;9.070;2023-05-21T02:41:59;96409.84;;;15.50;100.00
6514;BME280;3290;47.716;9.070;2023-05-21T02:44:24;96408.44;;;15.32;100.00
6514;BME280;3290;47.716;9.070;2023-05-21T02:46:49;96396.06;;;15.33;100.00
6514;BME280;3290;47.716;9.070;2023-05-21T02:49:15;96410.72;;;15.14;100.00
6514;BME280;3290;47.716;9.070;2023-05-21T02:51:40;96405.97;;;15.16;100.00
6514;BME280;3290;47.716;9.070;2023-05-21T02:54:05;96408.13;;;15.19;100.00
6514;BME280;3290;47.716;9.070;2023-05-21T02:56:31;96404.94;;;15.22;100.00
6514;BME280;3290;47.716;9.070;2023-05-21T02:58:56;96403.88;;;15.18;100.00
6514;BME280;3290;47.716;9.070;2023-05-21T03:01:21;96404.41;;;15.20;100.00
6514;BME280;3290;47.716;9.070;2023-05-21T03:03:47;96403.00;;;15.13;100.00
6514;BME280;3290;47.716;9.070;2023-05-21T03:06:12;96402.72;;;15.45;100.00
6514;BME280;3290;47.716;9.070;2023-05-21T03:08:38;96413.56;;;15.49;100.00
6514;BME280;3290;47.716;9.070;2023-05-21T03:11:03;96404.78;;;15.38;100.00
6514;BME280;3290;47.716;9.070;2023-05-21T03:13:29;96412.00;;;15.53;100.00
6514;BME280;3290;47.716;9.070;2023-05-21T03:15:54;96417.59;;;15.20;100.00
6514;BME280;3290;47.716;9.070;2023-05-21T03:18:21;96411.38;;;15.41;100.00
6514;BME280;3290;47.716;9.070;2023-05-21T03:20:46;96415.13;;;15.50;100.00
6514;BME280;3290;47.716;9.070;2023-05-21T03:23:12;96416.09;;;15.34;100.00
6514;BME280;3290;47.716;9.070;2023-05-21T03:25:38;96416.09;;;15.34;100.00
6514;BME280;3290;47.716;9.070;2023-05-21T03:28:04;96419.56;;;15.39;100.00
6514;BME280;3290;47.716;9.070;2023-05-21T03:30:31;96414.53;;;15.33;100.00
6514;BME280;3290;47.716;9.070;2023-05-21T03:32:56;96417.66;;;15.30;100.00
6514;BME280;3290;47.716;9.070;2023-05-21T03:35:21;96411.44;;;15.51;100.00
6514;BME280;3290;47.716;9.070;2023-05-21T03:37:47;96413.00;;;15.47;100.00
6514;BME280;3290;47.716;9.070;2023-05-21T03:40:12;96412.91;;;15.27;100.00
6514;BME280;3290;47.716;9.070;2023-05-21T03:42:38;96417.59;;;15.20;100.00
6514;BME280;3290;47.716;9.070;2023-05-21T03:45:05;96423.72;;;14.89;100.00
6514;BME280;3290;47.716;9.070;2023-05-21T03:47:31;96421.06;;;14.89;100.00
6514;BME280;3290;47.716;9.070;2023-05-21T03:49:56;96424.75;;;14.88;100.00
6514;BME280;3290;47.716;9.070;2023-05-21T03:52:21;96424.75;;;14.88;100.00
6514;BME280;3290;47.716;9.070;2023-05-21T03:54:47;96422.06;;;14.83;100.00
6514;BME280;3290;47.716;9.070;2023-05-21T03:57:12;96412.63;;;14.92;100.00
6514;BME280;3290;47.716;9.070;2023-05-21T03:59:37;96418.53;;;15.04;100.00
6514;BME280;3290;47.716;9.070;2023-05-21T04:02:03;96412.00;;;14.76;100.00
6514;BME280;3290;47.716;9.070;2023-05-21T04:04:28;96410.75;;;14.88;100.00
6514;BME280;3290;47.716;9.070;2023-05-21T04:06:54;96413.75;;;15.01;100.00
6514;BME280;3290;47.716;9.070;2023-05-21T04:09:20;96410.41;;;15.11;100.00
6514;BME280;3290;47.716;9.070;2023-05-21T04:11:45;96414.88;;;15.10;100.00
6514;BME280;3290;47.716;9.070;2023-05-21T04:14:11;96404.63;;;15.14;100.00
6514;BME280;3290;47.716;9.070;2023-05-21T04:16:37;96413.09;;;15.16;100.00
6514;BME280;3290;47.716;9.070;2023-05-21T04:19:03;96415.25;;;14.87;100.00
6514;BME280;3290;47.716;9.070;2023-05-21T04:21:28;96425.81;;;14.87;100.00
6514;BME280;3290;47.716;9.070;2023-05-21T04:23:53;96425.31;;;14.95;100.00
6514;BME280;3290;47.716;9.070;2023-05-21T04:26:22;96431.44;;;15.01;100.00
6514;BME280;3290;47.716;9.070;2023-05-21T04:28:48;96438.63;;;15.10;100.00
6514;BME280;3290;47.716;9.070;2023-05-21T04:31:13;96429.31;;;15.34;100.00
6514;BME280;3290;47.716;9.070;2023-05-21T04:33:39;96433.13;;;15.58;100.00
6514;BME280;3290;47.716;9.070;2023-05-21T04:36:06;96439.72;;;15.55;100.00
6514;BME280;3290;47.716;9.070;2023-05-21T04:38:34;96437.41;;;15.68;100.00
6514;BME280;3290;47.716;9.070;2023-05-21T04:41:01;96436.13;;;15.76;100.00
6514;BME280;3290;47.716;9.070;2023-05-21T04:43:28;96434.88;;;15.93;100.00
6514;BME280;3290;47.716;9.070;2023-05-21T04:45:53;96443.88;;;15.97;100.00
6514;BME280;3290;47.716;9.070;2023-05-21T04:48:19;96445.38;;;15.78;100.00
6514;BME280;3290;47.716;9.070;2023-05-21T04:50:44;96447.19;;;15.73;100.00
6514;BME280;3290;47.716;9.070;2023-05-21T04:53:10;96451.69;;;15.72;100.00
6514;BME280;3290;47.716;9.070;2023-05-21T04:55:36;96450.91;;;15.72;100.00
6514;BME280;3290;47.716;9.070;2023-05-21T04:58:07;96450.16;;;15.86;100.00
6514;BME280;3290;47.716;9.070;2023-05-21T05:00:37;96452.03;;;15.96;100.00
6514;BME280;3290;47.716;9.070;2023-05-21T05:03:03;96458.09;;;15.86;100.00
6514;BME280;3290;47.716;9.070;2023-05-21T05:05:28;96451.75;;;15.82;100.00
6514;BME280;3290;47.716;9.070;2023-05-21T05:07:54;96457.31;;;15.96;100.00
6514;BME280;3290;47.716;9.070;2023-05-21T05:10:20;96464.44;;;15.90;100.00
6514;BME280;3290;47.716;9.070;2023-05-21T05:12:45;96462.63;;;15.96;100.00
6514;BME280;3290;47.716;9.070;2023-05-21T05:15:11;96457.88;;;16.02;100.00
6514;BME280;3290;47.716;9.070;2023-05-21T05:17:36;96459.84;;;16.27;100.00
6514;BME280;3290;47.716;9.070;2023-05-21T05:20:01;96459.34;;;16.35;100.00
6514;BME280;3290;47.716;9.070;2023-05-21T05:22:27;96469.38;;;16.23;100.00
6514;BME280;3290;47.716;9.070;2023-05-21T05:24:52;96466.25;;;16.50;100.00
6514;BME280;3290;47.716;9.070;2023-05-21T05:27:17;96469.91;;;16.40;100.00
6514;BME280;3290;47.716;9.070;2023-05-21T05:29:46;96467.28;;;16.40;100.00
6514;BME280;3290;47.716;9.070;2023-05-21T05:32:12;96460.22;;;16.70;100.00
6514;BME280;3290;47.716;9.070;2023-05-21T05:34:37;96463.59;;;16.45;100.00
6514;BME280;3290;47.716;9.070;2023-05-21T05:37:03;96468.34;;;16.39;100.00
6514;BME280;3290;47.716;9.070;2023-05-21T05:39:28;96473.38;;;16.50;100.00
6514;BME280;3290;47.716;9.070;2023-05-21T05:41:53;96461.53;;;16.57;100.00
6514;BME280;3290;47.716;9.070;2023-05-21T05:44:19;96463.91;;;16.69;100.00
6514;BME280;3290;47.716;9.070;2023-05-21T05:46:44;96465.25;;;17.06;100.00
6514;BME280;3290;47.716;9.070;2023-05-21T05:49:10;96460.22;;;17.09;100.00
6514;BME280;3290;47.716;9.070;2023-05-21T05:51:35;96460.75;;;17.21;100.00
6514;BME280;3290;47.716;9.070;2023-05-21T05:54:01;96458.63;;;17.23;100.00
6514;BME280;3290;47.716;9.070;2023-05-21T05:56:26;96457.34;;;17.25;100.00
6514;BME280;3290;47.716;9.070;2023-05-21T05:58:52;96457.31;;;17.35;100.00
6514;BME280;3290;47.716;9.070;2023-05-21T06:01:17;96468.94;;;17.44;100.00
6514;BME280;3290;47.716;9.070;2023-05-21T06:03:43;96470.53;;;17.45;100.00
6514;BME280;3290;47.716;9.070;2023-05-21T06:06:08;96470.00;;;17.48;100.00
6514;BME280;3290;47.716;9.070;2023-05-21T06:08:33;96472.09;;;17.46;100.00
6514;BME280;3290;47.716;9.070;2023-05-21T06:11:00;96473.72;;;17.52;100.00
6514;BME280;3290;47.716;9.070;2023-05-21T06:13:25;96472.09;;;17.61;100.00
6514;BME280;3290;47.716;9.070;2023-05-21T06:15:52;96470.50;;;17.60;100.00
6514;BME280;3290;47.716;9.070;2023-05-21T06:18:17;96474.16;;;17.74;100.00
6514;BME280;3290;47.716;9.070;2023-05-21T06:20:43;96471.53;;;17.74;100.00
6514;BME280;3290;47.716;9.070;2023-05-21T06:23:08;96474.66;;;17.86;100.00
6514;BME280;3290;47.716;9.070;2023-05-21T06:25:33;96470.91;;;18.02;100.00
6514;BME280;3290;47.716;9.070;2023-05-21T06:27:59;96476.47;;;18.05;100.00
6514;BME280;3290;47.716;9.070;2023-05-21T06:30:24;96475.94;;;18.08;100.00
6514;BME280;3290;47.716;9.070;2023-05-21T06:32:50;96472.72;;;18.21;100.00
6514;BME280;3290;47.716;9.070;2023-05-21T06:35:15;96471.94;;;18.15;100.00
6514;BME280;3290;47.716;9.070;2023-05-21T06:37:40;96472.47;;;18.12;100.00
6514;BME280;3290;47.716;9.070;2023-05-21T06:40:07;96463.06;;;18.40;100.00
6514;BME280;3290;47.716;9.070;2023-05-21T06:42:33;96469.03;;;18.07;100.00
6514;BME280;3290;47.716;9.070;2023-05-21T06:44:58;96471.41;;;18.18;100.00
6514;BME280;3290;47.716;9.070;2023-05-21T06:47:25;96465.47;;;18.36;100.00
6514;BME280;3290;47.716;9.070;2023-05-21T06:49:50;96467.38;;;18.26;100.00
6514;BME280;3290;47.716;9.070;2023-05-21T06:52:15;96470.72;;;18.46;100.00
6514;BME280;3290;47.716;9.070;2023-05-21T06:54:41;96474.47;;;18.40;100.00
6514;BME280;3290;47.716;9.070;2023-05-21T06:57:06;96465.00;;;18.24;100.00
6514;BME280;3290;47.716;9.070;2023-05-21T06:59:32;96470.13;;;17.96;100.00
6514;BME280;3290;47.716;9.070;2023-05-21T07:01:57;96471.94;;;18.20;100.00
6514;BME280;3290;47.716;9.070;2023-05-21T07:04:23;96475.69;;;18.00;100.00
6514;BME280;3290;47.716;9.070;2023-05-21T07:06:48;96477.78;;;18.12;100.00
6514;BME280;3290;47.716;9.070;2023-05-21T07:09:14;96481.69;;;18.25;100.00
6514;BME280;3290;47.716;9.070;2023-05-21T07:11:39;96481.53;;;18.59;99.80
6514;BME280;3290;47.716;9.070;2023-05-21T07:14:07;96487.44;;;18.84;98.60
6514;BME280;3290;47.716;9.070;2023-05-21T07:16:32;96480.94;;;19.10;97.02
6514;BME280;3290;47.716;9.070;2023-05-21T07:18:58;96489.44;;;19.07;97.17
6514;BME280;3290;47.716;9.070;2023-05-21T07:21:23;96479.47;;;19.27;95.90
6514;BME280;3290;47.716;9.070;2023-05-21T07:23:48;96479.38;;;19.37;96.23
6514;BME280;3290;47.716;9.070;2023-05-21T07:26:14;96474.44;;;20.06;94.12
6514;BME280;3290;47.716;9.070;2023-05-21T07:28:39;96478.06;;;19.63;91.45
6514;BME280;3290;47.716;9.070;2023-05-21T07:31:05;96474.41;;;19.82;91.85
6514;BME280;3290;47.716;9.070;2023-05-21T07:33:30;96472.00;;;19.58;89.71
6514;BME280;3290;47.716;9.070;2023-05-21T07:35:56;96473.41;;;20.25;88.03
6514;BME280;3290;47.716;9.070;2023-05-21T07:38:21;96464.66;;;20.43;82.15
6514;BME280;3290;47.716;9.070;2023-05-21T07:40:46;96476.34;;;21.33;79.23
6514;BME280;3290;47.716;9.070;2023-05-21T07:43:12;96473.00;;;20.91;79.31
6514;BME280;3290;47.716;9.070;2023-05-21T07:45:37;96471.97;;;20.74;79.13
6514;BME280;3290;47.716;9.070;2023-05-21T07:48:02;96473.44;;;20.61;81.04
6514;BME280;3290;47.716;9.070;2023-05-21T07:50:28;96468.34;;;20.83;77.38
6514;BME280;3290;47.716;9.070;2023-05-21T07:52:53;96469.31;;;21.24;76.70
6514;BME280;3290;47.716;9.070;2023-05-21T07:55:18;96465.81;;;21.10;76.14
6514;BME280;3290;47.716;9.070;2023-05-21T07:57:44;96462.06;;;21.11;76.79
6514;BME280;3290;47.716;9.070;2023-05-21T08:00:10;96467.31;;;20.61;80.09
6514;BME280;3290;47.716;9.070;2023-05-21T08:02:38;96468.94;;;20.98;79.45
6514;BME280;3290;47.716;9.070;2023-05-21T08:05:04;96463.22;;;21.68;77.69
6514;BME280;3290;47.716;9.070;2023-05-21T08:07:29;96463.84;;;21.15;77.53
6514;BME280;3290;47.716;9.070;2023-05-21T08:09:56;96457.53;;;21.88;74.83
6514;BME280;3290;47.716;9.070;2023-05-21T08:12:22;96463.22;;;21.68;72.43
6514;BME280;3290;47.716;9.070;2023-05-21T08:14:47;96466.38;;;21.07;76.39
6514;BME280;3290;47.716;9.070;2023-05-21T08:17:13;96459.69;;;21.86;74.13
6514;BME280;3290;47.716;9.070;2023-05-21T08:19:38;96457.69;;;22.05;71.23
6514;BME280;3290;47.716;9.070;2023-05-21T08:22:04;96455.16;;;22.00;71.75
6514;BME280;3290;47.716;9.070;2023-05-21T08:24:31;96459.91;;;21.44;72.20
6514;BME280;3290;47.716;9.070;2023-05-21T08:26:56;96453.72;;;21.30;74.02
6514;BME280;3290;47.716;9.070;2023-05-21T08:29:21;96450.59;;;21.73;72.47
6514;BME280;3290;47.716;9.070;2023-05-21T08:31:47;96459.56;;;21.64;71.62
6514;BME280;3290;47.716;9.070;2023-05-21T08:34:12;96452.91;;;21.48;71.40
6514;BME280;3290;47.716;9.070;2023-05-21T08:36:37;96450.19;;;22.07;69.91
6514;BME280;3290;47.716;9.070;2023-05-21T08:39:03;96456.47;;;21.57;68.75
6514;BME280;3290;47.716;9.070;2023-05-21T08:41:30;96446.84;;;22.14;67.22
6514;BME280;3290;47.716;9.070;2023-05-21T08:43:55;96452.88;;;22.20;66.61
6514;BME280;3290;47.716;9.070;2023-05-21T08:46:24;96455.75;;;22.23;69.75
6514;BME280;3290;47.716;9.070;2023-05-21T08:48:53;96453.38;;;22.84;68.14
6514;BME280;3290;47.716;9.070;2023-05-21T08:51:20;96454.94;;;22.85;69.45
6514;BME280;3290;47.716;9.070;2023-05-21T08:53:46;96452.75;;;23.52;65.03
6514;BME280;3290;47.716;9.070;2023-05-21T08:56:15;96457.03;;;23.09;67.16
6514;BME280;3290;47.716;9.070;2023-05-21T08:58:41;96454.72;;;23.60;64.44
6514;BME280;3290;47.716;9.070;2023-05-21T09:01:10;96450.22;;;23.47;65.84
6514;BME280;3290;47.716;9.070;2023-05-21T09:03:38;96459.84;;;23.26;67.58
6514;BME280;3290;47.716;9.070;2023-05-21T09:06:06;96456.34;;;24.38;65.22
6514;BME280;3290;47.716;9.070;2023-05-21T09:08:34;96459.88;;;24.25;60.82
6514;BME280;3290;47.716;9.070;2023-05-21T09:11:02;96446.97;;;24.27;61.90
6514;BME280;3290;47.716;9.070;2023-05-21T09:13:30;96453.19;;;24.06;62.96
6514;BME280;3290;47.716;9.070;2023-05-21T09:15:57;96456.25;;;24.21;63.06
6514;BME280;3290;47.716;9.070;2023-05-21T09:18:22;96458.72;;;24.09;61.60
6514;BME280;3290;47.716;9.070;2023-05-21T09:20:48;96464.34;;;23.61;63.66
6514;BME280;3290;47.716;9.070;2023-05-21T09:23:16;96456.19;;;24.04;62.68
6514;BME280;3290;47.716;9.070;2023-05-21T09:25:48;96459.84;;;24.08;62.05
6514;BME280;3290;47.716;9.070;2023-05-21T09:28:14;96449.41;;;24.45;60.58
6514;BME280;3290;47.716;9.070;2023-05-21T09:30:47;96446.28;;;24.60;59.79
6514;BME280;3290;47.716;9.070;2023-05-21T09:33:23;96439.34;;;24.59;59.03
6514;BME280;3290;47.716;9.070;2023-05-21T09:35:50;96448.34;;;25.30;58.44
6514;BME280;3290;47.716;9.070;2023-05-21T09:38:16;96449.00;;;25.02;58.35
6514;BME280;3290;47.716;9.070;2023-05-21T09:40:44;96446.28;;;24.05;61.88
6514;BME280;3290;47.716;9.070;2023-05-21T09:43:14;96453.25;;;23.75;63.26
6514;BME280;3290;47.716;9.070;2023-05-21T09:45:52;96447.03;;;24.44;61.40
6514;BME280;3290;47.716;9.070;2023-05-21T09:53:47;96450.56;;;24.14;60.54
6514;BME280;3290;47.716;9.070;2023-05-21T09:56:12;96447.53;;;24.54;60.96
6514;BME280;3290;47.716;9.070;2023-05-21T09:58:38;96446.28;;;24.68;60.79
6514;BME280;3290;47.716;9.070;2023-05-21T10:01:05;96445.81;;;25.42;58.63
6514;BME280;3290;47.716;9.070;2023-05-21T10:03:30;96440.94;;;25.35;57.66
6514;BME280;3290;47.716;9.070;2023-05-21T10:05:58;96448.97;;;25.44;56.38
6514;BME280;3290;47.716;9.070;2023-05-21T10:08:26;96449.59;;;25.49;55.53
6514;BME280;3290;47.716;9.070;2023-05-21T10:10:55;96445.84;;;25.96;56.67
6514;BME280;3290;47.716;9.070;2023-05-21T10:13:21;96444.22;;;26.40;53.92
6514;BME280;3290;47.716;9.070;2023-05-21T10:15:54;96439.16;;;25.73;54.20
6514;BME280;3290;47.716;9.070;2023-05-21T10:18:21;96441.53;;;25.66;56.98
6514;BME280;3290;47.716;9.070;2023-05-21T10:20:47;96439.03;;;25.44;56.52
6514;BME280;3290;47.716;9.070;2023-05-21T10:23:13;96438.72;;;24.54;59.23
6514;BME280;3290;47.716;9.070;2023-05-21T10:25:40;96440.28;;;24.54;60.23
6514;BME280;3290;47.716;9.070;2023-05-21T10:28:05;96442.69;;;24.73;59.89
6514;BME280;3290;47.716;9.070;2023-05-21T10:30:31;96447.16;;;25.02;58.59
6514;BME280;3290;47.716;9.070;2023-05-21T10:32:57;96443.16;;;24.66;60.08
6514;BME280;3290;47.716;9.070;2023-05-21T10:35:23;96462.88;;;23.11;64.37
6514;BME280;3290;47.716;9.070;2023-05-21T10:37:50;96448.78;;;24.56;61.46
6514;BME280;3290;47.716;9.070;2023-05-21T10:40:16;96441.88;;;24.55;59.90
6514;BME280;3290;47.716;9.070;2023-05-21T10:43:31;96440.19;;;25.10;59.23
6514;BME280;3290;47.716;9.070;2023-05-21T10:46:09;96435.72;;;24.47;60.27
6514;BME280;3290;47.716;9.070;2023-05-21T10:51:26;96436.09;;;24.15;61.48
6514;BME280;3290;47.716;9.070;2023-05-21T10:56:59;96429.28;;;24.64;59.73
6514;BME280;3290;47.716;9.070;2023-05-21T11:02:04;96437.00;;;25.25;57.92
6514;BME280;3290;47.716;9.070;2023-05-21T11:04:31;96433.38;;;25.04;58.86
6514;BME280;3290;47.716;9.070;2023-05-21T11:06:59;96437.75;;;24.50;60.42
6514;BME280;3290;47.716;9.070;2023-05-21T11:09:26;96432.38;;;24.33;59.11
6514;BME280;3290;47.716;9.070;2023-05-21T11:11:57;96439.03;;;23.67;57.89
6514;BME280;3290;47.716;9.070;2023-05-21T11:14:39;96432.72;;;24.40;53.84
6514;BME280;3290;47.716;9.070;2023-05-21T11:19:36;96428.75;;;25.63;50.59
6514;BME280;3290;47.716;9.070;2023-05-21T11:24:43;96434.09;;;25.72;49.69
6514;BME280;3290;47.716;9.070;2023-05-21T11:27:08;96424.38;;;25.34;49.47
6514;BME280;3290;47.716;9.070;2023-05-21T11:29:42;96423.94;;;24.98;50.10
6514;BME280;3290;47.716;9.070;2023-05-21T11:32:10;96435.59;;;25.10;50.00
6514;BME280;3290;47.716;9.070;2023-05-21T11:34:46;96421.19;;;25.40;49.46
6514;BME280;3290;47.716;9.070;2023-05-21T11:39:45;96415.63;;;26.44;46.52
6514;BME280;3290;47.716;9.070;2023-05-21T11:42:11;96413.16;;;25.32;46.72
6514;BME280;3290;47.716;9.070;2023-05-21T11:44:45;96412.50;;;25.97;46.29
6514;BME280;3290;47.716;9.070;2023-05-21T11:49:37;96407.97;;;25.89;45.86
6514;BME280;3290;47.716;9.070;2023-05-21T11:52:04;96413.22;;;25.77;46.76
6514;BME280;3290;47.716;9.070;2023-05-21T11:54:31;96399.88;;;25.60;46.09
6514;BME280;3290;47.716;9.070;2023-05-21T11:57:01;96398.25;;;26.33;45.60
6514;BME280;3290;47.716;9.070;2023-05-21T11:59:26;96395.75;;;26.00;46.43
6514;BME280;3290;47.716;9.070;2023-05-21T12:01:53;96403.88;;;25.21;48.44
6514;BME280;3290;47.716;9.070;2023-05-21T12:04:18;96405.41;;;25.47;47.92
6514;BME280;3290;47.716;9.070;2023-05-21T12:06:44;96400.09;;;26.13;47.05
6514;BME280;3290;47.716;9.070;2023-05-21T12:09:10;96406.75;;;25.78;48.29
6514;BME280;3290;47.716;9.070;2023-05-21T12:11:39;96407.63;;;25.36;48.60
6514;BME280;3290;47.716;9.070;2023-05-21T12:14:11;96407.03;;;25.85;48.01
6514;BME280;3290;47.716;9.070;2023-05-21T12:16:38;96409.56;;;26.18;47.12
6514;BME280;3290;47.716;9.070;2023-05-21T12:19:04;96411.47;;;25.81;49.03
6514;BME280;3290;47.716;9.070;2023-05-21T12:21:31;96407.19;;;26.17;48.14
6514;BME280;3290;47.716;9.070;2023-05-21T12:23:57;96403.84;;;26.28;47.25
6514;BME280;3290;47.716;9.070;2023-05-21T12:26:26;96404.53;;;26.09;48.31
6514;BME280;3290;47.716;9.070;2023-05-21T12:28:55;96400.66;;;26.55;47.17
6514;BME280;3290;47.716;9.070;2023-05-21T12:31:21;96401.44;;;25.98;47.50
6514;BME280;3290;47.716;9.070;2023-05-21T12:33:50;96398.34;;;26.17;47.33
6514;BME280;3290;47.716;9.070;2023-05-21T12:36:25;96393.84;;;26.58;46.30
6514;BME280;3290;47.716;9.070;2023-05-21T12:38:51;96399.28;;;25.92;47.28
6514;BME280;3290;47.716;9.070;2023-05-21T12:41:17;96397.28;;;25.72;46.88
6514;BME280;3290;47.716;9.070;2023-05-21T12:43:43;96398.88;;;26.59;45.81
6514;BME280;3290;47.716;9.070;2023-05-21T12:46:11;96397.47;;;27.02;46.03
6514;BME280;3290;47.716;9.070;2023-05-21T12:48:39;96398.06;;;26.10;46.25
6514;BME280;3290;47.716;9.070;2023-05-21T12:51:07;96400.31;;;26.08;45.99
6514;BME280;3290;47.716;9.070;2023-05-21T12:53:40;96388.66;;;26.32;45.64
6514;BME280;3290;47.716;9.070;2023-05-21T12:56:14;96398.69;;;25.78;45.90
6514;BME280;3290;47.716;9.070;2023-05-21T12:58:40;96396.03;;;25.78;45.84
6514;BME280;3290;47.716;9.070;2023-05-21T13:01:10;96398.81;;;26.18;45.70
6514;BME280;3290;47.716;9.070;2023-05-21T13:03:40;96398.38;;;25.79;46.69
6514;BME280;3290;47.716;9.070;2023-05-21T13:06:07;96391.66;;;26.51;45.86
6514;BME280;3290;47.716;9.070;2023-05-21T13:08:33;96397.94;;;26.84;46.57
6514;BME280;3290;47.716;9.070;2023-05-21T13:11:02;96398.50;;;26.49;46.66
6514;BME280;3290;47.716;9.070;2023-05-21T13:13:28;96392.69;;;26.10;47.11
6514;BME280;3290;47.716;9.070;2023-05-21T13:15:54;96400.06;;;26.21;46.40
6514;BME280;3290;47.716;9.070;2023-05-21T13:18:20;96402.94;;;25.79;46.72
6514;BME280;3290;47.716;9.070;2023-05-21T13:20:46;96405.78;;;25.20;47.08
6514;BME280;3290;47.716;9.070;2023-05-21T13:23:14;96401.81;;;26.17;44.65
6514;BME280;3290;47.716;9.070;2023-05-21T13:25:40;96397.53;;;26.24;44.39
6514;BME280;3290;47.716;9.070;2023-05-21T13:28:06;96394.25;;;26.11;43.82
6514;BME280;3290;47.716;9.070;2023-05-21T13:30:35;96396.88;;;25.99;44.42
6514;BME280;3290;47.716;9.070;2023-05-21T13:33:00;96386.50;;;25.89;43.76
6514;BME280;3290;47.716;9.070;2023-05-21T13:35:26;96392.31;;;26.19;43.50
6514;BME280;3290;47.716;9.070;2023-05-21T13:37:51;96392.47;;;26.23;43.68
6514;BME280;3290;47.716;9.070;2023-05-21T13:40:17;96392.16;;;26.53;42.73